This is the latest recevied weather packets stored in our database for station/object W4SNA-3. If no packets are shown the sender has not sent any weather packets the latest 10 day(s).
| Time | Temp. | Humidity | Pressure | Rain* | Wind** | Luminosity | Snow |
|---|---|---|---|---|---|---|---|
| 1788628202 | 22.78° C | 77% | 1015.4 hPa | 0 mm | - | - | - |
| 1788627435 | 24.44° C | 77% | 1015.8 hPa | 0 mm | - | - | - |
| 1788627135 | 25° C | 74% | 1016 hPa | 0 mm | - | - | - |
| 1788626817 | 26.11° C | 72% | 1016.1 hPa | 0 mm | - | - | - |
| 1788626515 | 26.67° C | 71% | 1016.2 hPa | 0 mm | - | - | - |
| 1788626214 | 27.78° C | 70% | 1016.4 hPa | 0 mm | - | - | - |
| 1788625915 | 28.33° C | 72% | 1016.2 hPa | 0 mm | - | - | - |
| 1788625635 | 28.89° C | 71% | 1015.9 hPa | 0 mm | - | - | - |
| 1788625314 | 28.89° C | 71% | 1016 hPa | 0 mm | - | - | - |
| 1788625014 | 28.89° C | 71% | 1015.9 hPa | 0 mm | - | - | - |
| 1788624731 | 28.89° C | 70% | 1015.6 hPa | 0 mm | - | - | - |
| 1788624420 | 29.44° C | 70% | 1015.6 hPa | 0 mm | - | - | - |
| 1788624121 | 28.89° C | 69% | 1015.6 hPa | 0 mm | - | - | - |
| 1788623815 | 29.44° C | 69% | 1015.7 hPa | 0 mm | - | - | - |
| 1788623514 | 29.44° C | 68% | 1015.8 hPa | 0 mm | - | - | - |
| 1788623236 | 29.44° C | 71% | 1015.8 hPa | 0 mm | - | - | - |
| 1788622914 | 29.44° C | 69% | 1015.8 hPa | 0 mm | - | - | - |
| 1788622615 | 29.44° C | 68% | 1015.7 hPa | 0 mm | - | - | - |
| 1788622316 | 29.44° C | 69% | 1015.7 hPa | 0 mm | - | - | - |
| 1788622014 | 28.89° C | 69% | 1015.6 hPa | 0 mm | - | - | - |
| 1788621714 | 28.89° C | 72% | 1015.6 hPa | 0 mm | - | - | - |
| 1788621414 | 28.33° C | 72% | 1015.5 hPa | 0 mm | - | - | - |
| 1788621115 | 28.33° C | 73% | 1015.5 hPa | 0 mm | - | - | - |
| 1788620623 | 28.33° C | 71% | 1015.4 hPa | 0 mm | - | - | - |
| 1788620340 | 28.33° C | 70% | 1015.3 hPa | 0 mm | - | - | - |
* Rain latest hour (hover to see other rain measurements)
** Current wind speed in m/s (hover to see current wind gust speed)